createdAt,value
2023-04-28T00:02:08.360Z,10.30
2023-04-28T00:04:35.197Z,10.40
2023-04-28T00:07:02.256Z,10.40
2023-04-28T00:09:28.905Z,10.30
2023-04-28T00:11:55.590Z,10.50
2023-04-28T00:14:22.240Z,10.50
2023-04-28T00:16:49.319Z,10.50
2023-04-28T00:19:16.076Z,10.50
2023-04-28T00:21:42.716Z,10.50
2023-04-28T00:24:09.437Z,10.50
2023-04-28T00:26:36.560Z,10.60
2023-04-28T00:29:03.210Z,10.50
2023-04-28T00:31:30.030Z,10.50
2023-04-28T00:33:56.728Z,10.50
2023-04-28T00:36:23.408Z,10.40
2023-04-28T00:38:50.716Z,10.40
2023-04-28T00:41:17.359Z,10.50
2023-04-28T00:43:48.308Z,10.70
2023-04-28T00:46:22.358Z,10.50
2023-04-28T00:48:49.846Z,10.70
2023-04-28T00:51:17.461Z,10.70
2023-04-28T00:53:45.424Z,10.60
2023-04-28T00:56:12.676Z,10.70
2023-04-28T00:58:39.488Z,10.70
2023-04-28T01:01:08.006Z,10.70
2023-04-28T01:03:37.956Z,10.60
2023-04-28T01:06:06.335Z,10.60
2023-04-28T01:08:34.968Z,10.70
2023-04-28T01:11:02.803Z,10.60
2023-04-28T01:13:49.455Z,10.70
2023-04-28T01:16:16.461Z,10.60
2023-04-28T01:18:47.727Z,10.40
2023-04-28T01:21:25.397Z,10.30
2023-04-28T01:23:52.256Z,10.50
2023-04-28T01:26:18.934Z,10.50
2023-04-28T01:28:45.998Z,10.40
2023-04-28T01:31:12.789Z,10.40
2023-04-28T01:33:39.470Z,10.30
2023-04-28T01:36:06.687Z,10.50
2023-04-28T01:38:33.319Z,10.30
2023-04-28T01:41:00.031Z,10.20
2023-04-28T01:43:26.948Z,10.20
2023-04-28T01:45:53.671Z,10.20
2023-04-28T01:48:20.334Z,10.30
2023-04-28T01:50:46.965Z,10.30
2023-04-28T01:53:14.729Z,10.50
2023-04-28T01:55:41.702Z,10.40
2023-04-28T01:58:08.499Z,10.50
2023-04-28T02:00:35.315Z,10.60
2023-04-28T02:03:03.097Z,10.50
2023-04-28T02:05:29.902Z,10.40
2023-04-28T02:07:56.628Z,10.30
2023-04-28T02:10:23.316Z,10.20
2023-04-28T02:12:49.975Z,10.10
2023-04-28T02:15:17.000Z,10.30
2023-04-28T02:17:43.708Z,10.30
2023-04-28T02:20:10.860Z,10.20
2023-04-28T02:22:37.507Z,10.20
2023-04-28T02:25:05.983Z,10.30
2023-04-28T02:27:33.023Z,10.30
2023-04-28T02:29:59.838Z,10.30
2023-04-28T02:32:27.421Z,10.30
2023-04-28T02:34:55.375Z,10.30
2023-04-28T02:37:23.394Z,10.50
2023-04-28T02:39:51.124Z,10.50
2023-04-28T02:42:17.818Z,10.30
2023-04-28T02:44:44.598Z,10.30
2023-04-28T02:47:12.030Z,10.20
2023-04-28T02:49:38.978Z,10.10
2023-04-28T02:52:05.902Z,10.10
2023-04-28T02:54:34.265Z,10.20
2023-04-28T02:57:01.496Z,10.20
2023-04-28T02:59:29.312Z,10.10
2023-04-28T03:01:56.638Z,10.00
2023-04-28T03:04:23.443Z,9.90
2023-04-28T03:06:50.634Z,9.90
2023-04-28T03:09:17.331Z,10.10
2023-04-28T03:11:44.005Z,10.10
2023-04-28T03:14:11.117Z,10.10
2023-04-28T03:16:38.468Z,10.10
2023-04-28T03:19:05.434Z,10.30
2023-04-28T03:21:32.872Z,10.30
2023-04-28T03:23:59.687Z,10.30
2023-04-28T03:26:26.466Z,10.30
2023-04-28T03:28:53.620Z,10.40
2023-04-28T03:31:20.436Z,10.20
2023-04-28T03:33:47.403Z,10.10
2023-04-28T03:36:16.561Z,10.10
2023-04-28T03:38:44.027Z,10.30
2023-04-28T03:41:10.895Z,10.30
2023-04-28T03:44:03.524Z,10.40
2023-04-28T03:46:34.604Z,10.30
2023-04-28T03:49:04.204Z,10.50
2023-04-28T03:51:32.903Z,10.40
2023-04-28T03:53:59.811Z,10.30
2023-04-28T03:56:26.682Z,10.20
2023-04-28T03:58:54.078Z,10.30
2023-04-28T04:01:20.747Z,10.30
2023-04-28T04:03:48.568Z,10.30
2023-04-28T04:06:15.496Z,10.30
2023-04-28T04:08:42.612Z,10.40
2023-04-28T04:11:09.263Z,10.40
2023-04-28T04:13:36.125Z,10.50
2023-04-28T04:16:07.362Z,10.30
2023-04-28T04:18:34.053Z,10.30
2023-04-28T04:21:20.997Z,10.40
2023-04-28T04:23:50.090Z,10.40
2023-04-28T04:26:16.785Z,10.50
2023-04-28T04:28:43.532Z,10.50
2023-04-28T04:31:10.814Z,10.40
2023-04-28T04:33:37.850Z,10.40
2023-04-28T04:36:06.022Z,10.40
2023-04-28T04:38:33.272Z,10.50
2023-04-28T04:41:09.173Z,10.40
2023-04-28T04:43:35.859Z,10.40
2023-04-28T04:46:04.026Z,10.30
2023-04-28T04:48:32.052Z,10.30
2023-04-28T04:50:58.932Z,10.30
2023-04-28T04:53:26.339Z,10.20
2023-04-28T04:55:55.218Z,10.30
2023-04-28T04:58:22.042Z,10.30
2023-04-28T05:01:07.703Z,10.50
2023-04-28T05:03:34.678Z,10.40
2023-04-28T05:06:03.481Z,10.30
2023-04-28T05:08:40.504Z,10.20
2023-04-28T05:11:07.331Z,10.30
2023-04-28T05:13:34.008Z,10.30
2023-04-28T05:16:02.802Z,10.40
2023-04-28T05:18:41.245Z,10.50
2023-04-28T05:21:08.136Z,10.70
2023-04-28T05:23:34.854Z,10.80
2023-04-28T05:26:02.978Z,10.80
2023-04-28T05:28:31.039Z,10.70
2023-04-28T05:30:58.813Z,10.70
2023-04-28T05:33:25.980Z,10.70
2023-04-28T05:35:53.109Z,10.80
2023-04-28T05:38:21.569Z,10.90
2023-04-28T05:40:50.475Z,10.90
2023-04-28T05:43:17.499Z,10.90
2023-04-28T05:45:44.327Z,10.70
2023-04-28T05:48:11.206Z,10.70
2023-04-28T05:50:40.114Z,10.60
2023-04-28T05:53:07.493Z,10.60
2023-04-28T05:55:36.262Z,10.60
2023-04-28T05:58:04.130Z,10.80
2023-04-28T06:00:31.352Z,10.60
2023-04-28T06:03:00.897Z,10.60
2023-04-28T06:05:28.273Z,10.60
2023-04-28T06:07:56.143Z,10.50
2023-04-28T06:10:23.597Z,10.60
2023-04-28T06:12:50.260Z,10.70
2023-04-28T06:15:16.900Z,10.80
2023-04-28T06:17:43.630Z,10.90
2023-04-28T06:20:12.534Z,10.70
2023-04-28T06:22:40.336Z,10.60
2023-04-28T06:25:07.819Z,10.70
2023-04-28T06:27:54.702Z,10.70
2023-04-28T06:30:23.357Z,10.80
2023-04-28T06:32:50.667Z,10.90
2023-04-28T06:35:18.196Z,10.70
2023-04-28T06:37:44.880Z,10.60
2023-04-28T06:40:12.178Z,10.40
2023-04-28T06:42:42.780Z,10.40
2023-04-28T06:45:11.937Z,10.60
2023-04-28T06:47:40.601Z,10.70
2023-04-28T06:50:09.579Z,10.80
2023-04-28T06:52:39.579Z,10.60
2023-04-28T06:55:09.854Z,10.70
2023-04-28T06:57:38.069Z,10.60
2023-04-28T07:00:05.584Z,10.30
2023-04-28T07:02:32.462Z,10.40
2023-04-28T07:04:59.206Z,10.30
2023-04-28T07:07:26.418Z,10.50
2023-04-28T07:09:53.558Z,10.70
2023-04-28T07:12:21.845Z,10.70
2023-04-28T07:14:50.544Z,10.80
2023-04-28T07:17:17.296Z,10.70
2023-04-28T07:19:43.942Z,10.70
2023-04-28T07:22:10.648Z,10.70
2023-04-28T07:24:37.408Z,10.70
2023-04-28T07:27:04.072Z,10.80
2023-04-28T07:29:34.041Z,11.00
2023-04-28T07:32:07.353Z,10.90
2023-04-28T07:34:35.793Z,10.90
2023-04-28T07:37:03.596Z,10.80
2023-04-28T07:39:34.896Z,10.90
2023-04-28T07:42:03.231Z,11.10
2023-04-28T07:44:30.302Z,11.20
2023-04-28T07:46:57.355Z,11.20
2023-04-28T07:49:24.048Z,11.20
2023-04-28T07:51:53.552Z,11.20
2023-04-28T07:54:20.344Z,11.20
2023-04-28T07:56:47.259Z,11.20
2023-04-28T07:59:14.313Z,11.50
2023-04-28T08:01:41.169Z,11.40
2023-04-28T08:04:08.069Z,11.40
2023-04-28T08:06:36.223Z,11.60
2023-04-28T08:09:05.340Z,11.60
2023-04-28T08:11:33.383Z,11.40
2023-04-28T08:14:02.895Z,11.70
2023-04-28T08:16:30.975Z,11.70
2023-04-28T08:18:59.252Z,11.60
2023-04-28T08:21:26.900Z,11.60
2023-04-28T08:23:53.982Z,11.70
2023-04-28T08:26:21.161Z,11.70
2023-04-28T08:28:47.806Z,11.80
2023-04-28T08:31:14.523Z,11.90
2023-04-28T08:33:44.573Z,12.00
2023-04-28T08:36:15.050Z,12.10
2023-04-28T08:38:42.117Z,12.20
2023-04-28T08:41:08.894Z,12.20
2023-04-28T08:43:36.768Z,12.20
2023-04-28T08:46:07.871Z,12.30
2023-04-28T08:48:43.893Z,12.20
2023-04-28T08:51:16.372Z,12.20
2023-04-28T08:54:15.064Z,12.10
2023-04-28T08:56:36.959Z,12.10
2023-04-28T08:59:05.016Z,12.10
2023-04-28T09:01:32.257Z,12.20
2023-04-28T09:04:03.135Z,12.30
2023-04-28T09:06:37.426Z,12.40
2023-04-28T09:09:25.119Z,12.30
2023-04-28T09:12:01.791Z,12.60
2023-04-28T09:14:30.166Z,12.60
2023-04-28T09:16:57.164Z,12.80
2023-04-28T09:19:24.645Z,12.70
2023-04-28T09:21:55.570Z,12.80
2023-04-28T09:24:30.777Z,12.70
2023-04-28T09:26:59.036Z,12.90
2023-04-28T09:29:25.952Z,12.70
2023-04-28T09:31:53.474Z,12.90
2023-04-28T09:34:22.076Z,12.80
2023-04-28T09:36:48.753Z,12.80
2023-04-28T09:39:15.510Z,12.80
2023-04-28T09:41:43.795Z,12.70
2023-04-28T09:44:21.769Z,12.60
2023-04-28T09:46:48.571Z,12.70
2023-04-28T09:49:15.468Z,12.70
2023-04-28T09:51:42.207Z,12.70
2023-04-28T09:54:08.850Z,12.50
2023-04-28T09:56:40.178Z,12.50
2023-04-28T09:59:06.920Z,12.40
2023-04-28T10:01:44.315Z,12.60
2023-04-28T10:04:13.040Z,12.80
2023-04-28T10:06:40.338Z,12.70
2023-04-28T10:09:08.285Z,12.90
2023-04-28T10:11:35.261Z,13.10
2023-04-28T10:14:02.359Z,13.20
2023-04-28T10:16:32.662Z,13.00
2023-04-28T10:19:01.963Z,13.10
2023-04-28T10:21:32.006Z,13.10
2023-04-28T10:24:12.838Z,13.10
2023-04-28T10:27:08.397Z,13.10
2023-04-28T10:29:36.100Z,13.20
2023-04-28T10:32:23.462Z,13.30
2023-04-28T10:34:50.609Z,13.60
2023-04-28T10:37:19.157Z,13.70
2023-04-28T10:40:23.466Z,13.70
2023-04-28T10:42:56.105Z,13.80
2023-04-28T10:45:56.758Z,13.70
2023-04-28T10:48:30.839Z,13.60
2023-04-28T10:51:09.812Z,13.80
2023-04-28T10:53:46.178Z,13.90
2023-04-28T10:56:21.404Z,13.90
2023-04-28T10:58:50.706Z,13.80
2023-04-28T11:01:26.314Z,13.80
2023-04-28T11:04:04.139Z,13.80
2023-04-28T11:06:58.602Z,13.70
2023-04-28T11:09:31.318Z,13.70
2023-04-28T11:12:01.249Z,13.70
2023-04-28T11:14:35.443Z,13.80
2023-04-28T11:17:03.530Z,13.80
2023-04-28T11:19:42.040Z,13.90
2023-04-28T11:22:20.193Z,13.80
2023-04-28T11:24:57.972Z,13.70
2023-04-28T11:27:29.404Z,13.70
2023-04-28T11:29:56.686Z,13.70
2023-04-28T11:32:42.244Z,13.70
2023-04-28T11:35:09.880Z,13.70
2023-04-28T11:37:36.740Z,13.80
2023-04-28T11:40:13.594Z,14.00
2023-04-28T11:42:49.539Z,14.00
2023-04-28T11:45:16.434Z,14.00
2023-04-28T11:47:43.352Z,14.00
2023-04-28T11:50:10.988Z,13.90
2023-04-28T11:52:48.808Z,13.90
2023-04-28T11:55:17.202Z,14.00
2023-04-28T11:57:44.050Z,14.00
2023-04-28T12:00:19.128Z,14.10
2023-04-28T12:02:46.001Z,14.20
2023-04-28T12:05:12.857Z,14.10
2023-04-28T12:07:44.234Z,14.20
2023-04-28T12:10:16.578Z,14.20
2023-04-28T12:12:51.063Z,14.40
2023-04-28T12:15:20.745Z,14.30
2023-04-28T12:17:49.044Z,14.40
2023-04-28T12:20:36.550Z,14.50
2023-04-28T12:23:03.384Z,14.60
2023-04-28T12:25:30.317Z,14.70
2023-04-28T12:28:08.130Z,14.90
2023-04-28T12:30:38.902Z,15.00
2023-04-28T12:33:05.925Z,15.10
2023-04-28T12:35:33.102Z,15.00
2023-04-28T12:38:00.234Z,15.00
2023-04-28T12:40:27.170Z,14.90
2023-04-28T12:42:54.016Z,15.00
2023-04-28T12:45:20.787Z,15.10
2023-04-28T12:47:47.990Z,15.20
2023-04-28T12:50:14.709Z,15.20
2023-04-28T12:52:41.461Z,15.20
2023-04-28T12:55:08.642Z,15.10
2023-04-28T12:57:38.974Z,15.20
2023-04-28T13:00:07.318Z,15.10
2023-04-28T13:02:34.545Z,15.00
2023-04-28T13:05:01.874Z,15.00
2023-04-28T13:07:30.138Z,15.20
2023-04-28T13:09:56.889Z,15.30
2023-04-28T13:12:24.183Z,14.90
2023-04-28T13:14:51.036Z,14.80
2023-04-28T13:17:17.945Z,14.80
2023-04-28T13:19:44.984Z,14.90
2023-04-28T13:22:12.315Z,14.90
2023-04-28T13:24:39.289Z,14.70
2023-04-28T13:27:09.530Z,14.50
2023-04-28T13:29:36.894Z,14.60
2023-04-28T13:32:05.244Z,14.70
2023-04-28T13:34:32.182Z,14.80
2023-04-28T13:36:58.866Z,14.90
2023-04-28T13:39:25.713Z,14.90
2023-04-28T13:41:52.578Z,14.80
2023-04-28T13:44:19.329Z,15.10
2023-04-28T13:46:46.221Z,15.20
2023-04-28T13:49:13.187Z,15.40
2023-04-28T13:51:39.917Z,15.40
2023-04-28T13:54:08.900Z,15.50
2023-04-28T13:56:36.593Z,15.50
2023-04-28T13:59:03.848Z,15.50
2023-04-28T14:01:30.713Z,15.40
2023-04-28T14:03:57.719Z,15.20
2023-04-28T14:06:27.308Z,15.00
2023-04-28T14:08:53.965Z,15.00
2023-04-28T14:11:20.781Z,15.20
2023-04-28T14:13:47.400Z,15.40
2023-04-28T14:16:14.191Z,15.60
2023-04-28T14:18:41.241Z,15.70
2023-04-28T14:21:08.327Z,15.70
2023-04-28T14:23:35.492Z,15.70
2023-04-28T14:26:02.440Z,15.30
2023-04-28T14:28:29.268Z,15.00
2023-04-28T14:30:56.485Z,15.00
2023-04-28T14:33:23.495Z,15.10
2023-04-28T14:35:50.161Z,15.10
2023-04-28T14:38:16.936Z,15.20
2023-04-28T14:40:43.580Z,15.20
2023-04-28T14:43:10.467Z,15.00
2023-04-28T14:45:38.088Z,15.00
2023-04-28T14:48:06.956Z,14.90
2023-04-28T14:50:33.884Z,14.90
2023-04-28T14:53:05.265Z,14.80
2023-04-28T14:55:32.392Z,15.00
2023-04-28T14:57:59.082Z,15.10
2023-04-28T15:00:25.735Z,15.20
2023-04-28T15:02:52.607Z,15.20
2023-04-28T15:05:19.633Z,15.00
2023-04-28T15:07:46.379Z,15.10
2023-04-28T15:10:13.042Z,15.10
2023-04-28T15:12:40.074Z,15.10
2023-04-28T15:15:07.799Z,15.00
2023-04-28T15:17:34.605Z,14.80
2023-04-28T15:20:01.426Z,14.60
2023-04-28T15:22:28.055Z,14.40
2023-04-28T15:24:55.762Z,13.80
2023-04-28T15:27:23.146Z,13.50
2023-04-28T15:29:50.593Z,13.70
2023-04-28T15:32:18.170Z,13.90
2023-04-28T15:34:44.918Z,13.90
2023-04-28T15:37:37.596Z,14.10
2023-04-28T15:40:05.869Z,14.00
2023-04-28T15:42:32.827Z,13.80
2023-04-28T15:44:59.666Z,13.80
2023-04-28T15:47:26.349Z,13.70
2023-04-28T15:49:52.994Z,13.90
2023-04-28T15:52:19.812Z,14.00
2023-04-28T15:54:46.484Z,14.00
2023-04-28T15:57:13.183Z,14.10
2023-04-28T15:59:40.995Z,14.20
2023-04-28T16:02:07.976Z,14.30
2023-04-28T16:04:34.930Z,14.30
2023-04-28T16:07:02.621Z,14.30
2023-04-28T16:09:29.820Z,14.30
2023-04-28T16:11:59.251Z,14.30
2023-04-28T16:14:26.796Z,14.00
2023-04-28T16:16:53.849Z,13.90
2023-04-28T16:19:21.719Z,13.90
2023-04-28T16:21:48.390Z,14.20
2023-04-28T16:24:15.125Z,14.30
2023-04-28T16:26:42.013Z,14.40
2023-04-28T16:29:08.748Z,14.40
2023-04-28T16:31:36.303Z,14.40
2023-04-28T16:34:03.691Z,14.40
2023-04-28T16:36:32.819Z,14.50
2023-04-28T16:38:59.587Z,14.60
2023-04-28T16:41:26.584Z,14.80
2023-04-28T16:43:53.281Z,14.60
2023-04-28T16:46:19.999Z,14.60
2023-04-28T16:48:47.097Z,14.80
2023-04-28T16:51:13.789Z,14.70
2023-04-28T16:53:40.586Z,14.50
2023-04-28T16:56:10.241Z,14.60
2023-04-28T16:58:37.868Z,14.60
2023-04-28T17:01:04.659Z,14.50
2023-04-28T17:03:31.517Z,14.50
2023-04-28T17:05:59.497Z,14.50
2023-04-28T17:08:26.705Z,14.60
2023-04-28T17:10:53.397Z,14.60
2023-04-28T17:13:20.138Z,14.70
2023-04-28T17:15:54.238Z,14.80
2023-04-28T17:18:21.168Z,14.80
2023-04-28T17:20:48.198Z,14.80
2023-04-28T17:23:15.679Z,14.80
2023-04-28T17:25:42.454Z,14.50
2023-04-28T17:28:09.188Z,14.60
2023-04-28T17:30:36.714Z,14.70
2023-04-28T17:33:03.862Z,14.80
2023-04-28T17:35:30.793Z,14.70
2023-04-28T17:37:57.528Z,14.80
2023-04-28T17:40:24.311Z,15.00
2023-04-28T17:42:51.645Z,15.00
2023-04-28T17:45:18.374Z,15.00
2023-04-28T17:47:45.108Z,14.70
2023-04-28T17:50:11.803Z,14.80
2023-04-28T17:52:38.846Z,14.80
2023-04-28T17:55:06.114Z,14.70
2023-04-28T17:57:32.790Z,14.50
2023-04-28T17:59:59.425Z,14.40
2023-04-28T18:02:26.264Z,14.40
2023-04-28T18:04:53.450Z,14.40
2023-04-28T18:07:20.632Z,14.30
2023-04-28T18:09:47.344Z,14.40
2023-04-28T18:12:14.075Z,14.60
2023-04-28T18:14:44.084Z,14.50
2023-04-28T18:17:10.765Z,14.50
2023-04-28T18:19:37.417Z,14.40
2023-04-28T18:22:04.082Z,14.30
2023-04-28T18:24:30.784Z,14.00
2023-04-28T18:26:57.415Z,14.00
2023-04-28T18:29:24.263Z,13.90
2023-04-28T18:31:51.448Z,14.00
2023-04-28T18:34:18.447Z,13.80
2023-04-28T18:36:45.139Z,13.70
2023-04-28T18:39:12.517Z,13.80
2023-04-28T18:41:40.057Z,13.90
2023-04-28T18:44:07.345Z,14.00
2023-04-28T18:46:34.609Z,13.80
2023-04-28T18:49:03.003Z,13.60
2023-04-28T18:51:29.821Z,13.50
2023-04-28T18:53:56.508Z,13.60
2023-04-28T18:56:24.422Z,13.50
2023-04-28T18:58:51.349Z,13.40
2023-04-28T19:01:18.305Z,13.30
2023-04-28T19:03:45.469Z,13.20
2023-04-28T19:06:12.705Z,13.10
2023-04-28T19:08:39.421Z,13.50
2023-04-28T19:11:07.144Z,13.60
2023-04-28T19:13:35.270Z,13.40
2023-04-28T19:16:02.184Z,13.40
2023-04-28T19:18:31.105Z,13.60
2023-04-28T19:21:05.030Z,13.60
2023-04-28T19:23:35.232Z,13.50
2023-04-28T19:26:01.962Z,13.30
2023-04-28T19:28:29.670Z,13.50
2023-04-28T19:30:57.748Z,13.50
2023-04-28T19:33:28.007Z,13.30
2023-04-28T19:35:55.392Z,13.00
2023-04-28T19:38:23.448Z,12.80
2023-04-28T19:40:51.500Z,12.80
2023-04-28T19:43:18.287Z,12.80
2023-04-28T19:45:46.585Z,12.90
2023-04-28T19:48:14.295Z,13.00
2023-04-28T19:50:41.844Z,12.90
2023-04-28T19:53:09.214Z,13.00
2023-04-28T19:55:36.421Z,13.10
2023-04-28T19:58:03.856Z,13.10
2023-04-28T20:00:32.502Z,13.10
2023-04-28T20:02:59.836Z,13.00
2023-04-28T20:05:26.927Z,13.10
2023-04-28T20:07:56.217Z,13.30
2023-04-28T20:10:23.977Z,13.30
2023-04-28T20:12:50.814Z,13.30
2023-04-28T20:15:18.067Z,13.30
2023-04-28T20:17:45.720Z,13.40
2023-04-28T20:20:12.537Z,13.30
2023-04-28T20:22:40.664Z,13.20
2023-04-28T20:25:09.874Z,13.40
2023-04-28T20:27:36.920Z,13.50
2023-04-28T20:30:04.220Z,13.30
2023-04-28T20:32:31.097Z,13.30
2023-04-28T20:34:57.812Z,13.30
2023-04-28T20:37:26.228Z,13.20
2023-04-28T20:39:53.188Z,13.10
2023-04-28T20:42:19.884Z,13.00
2023-04-28T20:44:46.656Z,13.00
2023-04-28T20:47:14.044Z,13.10
2023-04-28T20:49:41.806Z,12.90
2023-04-28T20:52:09.051Z,13.00
2023-04-28T20:54:36.368Z,12.80
2023-04-28T20:57:04.368Z,12.70
2023-04-28T20:59:32.762Z,12.70
2023-04-28T21:02:00.351Z,12.80
2023-04-28T21:04:28.521Z,12.80
2023-04-28T21:06:55.465Z,12.80
2023-04-28T21:09:24.806Z,12.70
2023-04-28T21:11:51.513Z,12.80
2023-04-28T21:14:18.666Z,12.70
2023-04-28T21:16:45.426Z,12.90
2023-04-28T21:19:12.109Z,12.60
2023-04-28T21:21:38.835Z,12.60
2023-04-28T21:24:08.286Z,12.50
2023-04-28T21:26:36.044Z,12.50
2023-04-28T21:29:04.819Z,12.30
2023-04-28T21:31:38.494Z,12.30
2023-04-28T21:34:08.707Z,12.40
2023-04-28T21:36:36.071Z,12.30
2023-04-28T21:39:04.224Z,12.30
2023-04-28T21:41:31.052Z,12.10
2023-04-28T21:44:00.940Z,12.00
2023-04-28T21:46:28.064Z,12.10
2023-04-28T21:48:55.129Z,12.00
2023-04-28T21:51:21.791Z,11.80
2023-04-28T21:53:48.669Z,11.80
2023-04-28T21:56:17.139Z,11.70
2023-04-28T21:58:43.834Z,11.70
2023-04-28T22:01:15.279Z,11.90
2023-04-28T22:03:42.149Z,11.80
2023-04-28T22:06:09.048Z,11.70
2023-04-28T22:08:36.607Z,11.70
2023-04-28T22:11:03.900Z,11.80
2023-04-28T22:13:30.642Z,11.70
2023-04-28T22:15:59.143Z,11.60
2023-04-28T22:18:26.302Z,11.60
2023-04-28T22:20:53.220Z,11.60
2023-04-28T22:23:19.957Z,11.70
2023-04-28T22:25:46.642Z,11.80
2023-04-28T22:28:13.830Z,11.90
2023-04-28T22:30:40.522Z,11.80
2023-04-28T22:33:07.284Z,11.70
2023-04-28T22:35:34.382Z,11.70
2023-04-28T22:38:01.310Z,11.60
2023-04-28T22:40:27.985Z,11.80
2023-04-28T22:42:54.754Z,11.90
2023-04-28T22:45:21.432Z,11.80
2023-04-28T22:47:48.104Z,11.70
2023-04-28T22:50:14.813Z,11.70
2023-04-28T22:52:41.679Z,11.60
2023-04-28T22:55:08.580Z,11.50
2023-04-28T22:57:36.324Z,11.60
2023-04-28T23:00:05.847Z,11.60
2023-04-28T23:02:32.820Z,11.50
2023-04-28T23:05:01.137Z,11.40
2023-04-28T23:07:28.201Z,11.30
2023-04-28T23:09:54.843Z,11.30
2023-04-28T23:12:21.784Z,11.20
2023-04-28T23:14:48.422Z,11.10
2023-04-28T23:17:15.107Z,11.20
2023-04-28T23:19:41.861Z,11.20
2023-04-28T23:22:08.596Z,11.20
2023-04-28T23:24:37.941Z,11.20
2023-04-28T23:27:04.933Z,11.10
2023-04-28T23:29:32.123Z,11.30
2023-04-28T23:31:59.366Z,11.20
2023-04-28T23:34:26.177Z,11.10
2023-04-28T23:36:52.947Z,11.10
2023-04-28T23:39:19.757Z,11.20
2023-04-28T23:41:46.750Z,11.10
2023-04-28T23:44:13.447Z,11.00
2023-04-28T23:46:40.106Z,10.90
2023-04-28T23:49:06.926Z,10.90
2023-04-28T23:51:33.656Z,10.90
2023-04-28T23:54:01.486Z,10.90
2023-04-28T23:56:28.218Z,11.00
2023-04-28T23:58:54.859Z,11.20
